createdAt,value
2022-11-27T00:01:20.915Z,2.09
2022-11-27T00:03:49.143Z,2.08
2022-11-27T00:06:19.330Z,2.09
2022-11-27T00:08:49.507Z,2.09
2022-11-27T00:11:19.440Z,2.00
2022-11-27T00:13:47.996Z,1.89
2022-11-27T00:16:16.262Z,2.12
2022-11-27T00:18:44.441Z,2.10
2022-11-27T00:21:14.165Z,1.84
2022-11-27T00:23:42.680Z,1.93
2022-11-27T00:26:12.355Z,2.13
2022-11-27T00:28:40.624Z,2.09
2022-11-27T00:31:13.463Z,2.08
2022-11-27T00:33:41.736Z,2.07
2022-11-27T00:36:11.039Z,2.12
2022-11-27T00:38:39.476Z,2.11
2022-11-27T00:41:08.685Z,2.10
2022-11-27T00:43:44.399Z,2.10
2022-11-27T00:46:13.602Z,2.09
2022-11-27T00:48:41.667Z,2.09
2022-11-27T00:51:11.716Z,2.08
2022-11-27T00:53:39.755Z,2.02
2022-11-27T00:56:08.180Z,2.00
2022-11-27T00:58:37.444Z,2.01
2022-11-27T01:01:07.429Z,2.05
2022-11-27T01:03:36.528Z,2.10
2022-11-27T01:06:06.587Z,2.11
2022-11-27T01:08:35.176Z,2.09
2022-11-27T01:11:03.505Z,2.01
2022-11-27T01:13:34.233Z,2.12
2022-11-27T01:16:06.801Z,2.09
2022-11-27T01:18:35.449Z,1.83
2022-11-27T01:21:04.545Z,2.17
2022-11-27T01:23:32.937Z,1.96
2022-11-27T01:26:01.519Z,2.17
2022-11-27T01:28:30.033Z,2.15
2022-11-27T01:30:58.163Z,2.17
2022-11-27T01:33:27.327Z,2.16
2022-11-27T01:35:56.719Z,2.16
2022-11-27T01:38:25.200Z,2.16
2022-11-27T01:40:58.302Z,2.17
2022-11-27T01:43:42.100Z,2.15
2022-11-27T01:46:30.135Z,2.14
2022-11-27T01:49:06.600Z,2.14
2022-11-27T01:51:34.606Z,2.13
2022-11-27T01:54:02.389Z,2.13
2022-11-27T01:56:31.239Z,2.14
2022-11-27T01:59:01.062Z,2.15
2022-11-27T02:01:29.046Z,2.08
2022-11-27T02:04:02.231Z,2.13
2022-11-27T02:06:30.612Z,2.14
2022-11-27T02:08:58.826Z,1.95
2022-11-27T02:11:37.404Z,2.13
2022-11-27T02:14:16.383Z,2.14
2022-11-27T02:16:52.467Z,2.16
2022-11-27T02:19:34.387Z,2.18
2022-11-27T02:22:09.482Z,2.15
2022-11-27T02:24:50.595Z,2.20
2022-11-27T02:27:38.487Z,2.06
2022-11-27T02:30:09.047Z,2.21
2022-11-27T02:32:40.867Z,2.23
2022-11-27T02:35:15.744Z,1.85
2022-11-27T02:37:48.808Z,2.22
2022-11-27T02:40:26.068Z,1.93
2022-11-27T02:42:59.167Z,2.15
2022-11-27T02:45:34.013Z,2.20
2022-11-27T02:48:02.088Z,2.20
2022-11-27T02:50:33.224Z,2.21
2022-11-27T02:53:05.120Z,1.58
2022-11-27T02:55:35.868Z,2.18
2022-11-27T02:58:08.415Z,2.16
2022-11-27T03:00:39.700Z,2.15
2022-11-27T03:03:11.924Z,2.14
2022-11-27T03:05:43.351Z,2.12
2022-11-27T03:08:19.596Z,2.02
2022-11-27T03:10:51.982Z,1.92
2022-11-27T03:13:20.384Z,2.06
2022-11-27T03:16:01.380Z,2.04
2022-11-27T03:18:38.431Z,1.93
2022-11-27T03:21:23.367Z,2.02
2022-11-27T03:23:51.585Z,1.99
2022-11-27T03:26:19.523Z,1.97
2022-11-27T03:28:48.245Z,1.96
2022-11-27T03:31:17.961Z,1.97
2022-11-27T03:33:46.149Z,1.95
2022-11-27T03:36:16.197Z,1.94
2022-11-27T03:38:46.640Z,1.98
2022-11-27T03:41:22.770Z,1.98
2022-11-27T03:44:01.403Z,1.99
2022-11-27T03:46:41.112Z,2.01
2022-11-27T03:49:19.605Z,2.03
2022-11-27T03:51:54.516Z,2.05
2022-11-27T03:54:31.679Z,2.06
2022-11-27T03:57:07.860Z,2.05
2022-11-27T03:59:40.747Z,2.05
2022-11-27T04:02:14.646Z,2.03
2022-11-27T04:04:42.965Z,1.98
2022-11-27T04:07:16.961Z,2.02
2022-11-27T04:09:45.058Z,2.02
2022-11-27T04:12:12.867Z,2.02
2022-11-27T04:14:40.873Z,2.04
2022-11-27T04:17:09.575Z,2.03
2022-11-27T04:19:38.765Z,2.03
2022-11-27T04:22:06.593Z,2.02
2022-11-27T04:24:34.570Z,2.05
2022-11-27T04:27:02.354Z,2.03
2022-11-27T04:29:30.157Z,2.00
2022-11-27T04:31:58.657Z,2.07
2022-11-27T04:34:26.564Z,2.04
2022-11-27T04:36:55.743Z,1.96
2022-11-27T04:39:23.938Z,2.05
2022-11-27T04:41:51.735Z,2.08
2022-11-27T04:44:19.609Z,1.99
2022-11-27T04:46:47.786Z,2.08
2022-11-27T04:49:15.627Z,2.08
2022-11-27T04:51:43.446Z,1.98
2022-11-27T04:54:13.123Z,1.89
2022-11-27T04:56:40.931Z,2.08
2022-11-27T04:59:08.720Z,2.08
2022-11-27T05:01:37.221Z,2.07
2022-11-27T05:04:05.350Z,2.00
2022-11-27T05:06:33.156Z,2.04
2022-11-27T05:09:02.335Z,2.05
2022-11-27T05:11:35.306Z,2.03
2022-11-27T05:14:20.255Z,2.02
2022-11-27T05:16:50.320Z,1.99
2022-11-27T05:19:20.520Z,1.85
2022-11-27T05:21:49.141Z,1.96
2022-11-27T05:24:18.011Z,1.96
2022-11-27T05:26:47.919Z,1.96
2022-11-27T05:29:16.476Z,1.96
2022-11-27T05:31:44.613Z,1.92
2022-11-27T05:34:12.698Z,1.98
2022-11-27T05:36:41.197Z,1.94
2022-11-27T05:39:09.903Z,2.00
2022-11-27T05:41:39.127Z,2.00
2022-11-27T05:44:08.692Z,1.95
2022-11-27T05:46:36.569Z,2.00
2022-11-27T05:49:06.278Z,2.01
2022-11-27T05:51:34.495Z,1.97
2022-11-27T05:54:02.308Z,2.01
2022-11-27T05:56:30.133Z,2.02
2022-11-27T05:58:58.237Z,2.02
2022-11-27T06:01:27.462Z,2.02
2022-11-27T06:03:55.311Z,1.95
2022-11-27T06:06:23.304Z,2.01
2022-11-27T06:08:51.111Z,2.03
2022-11-27T06:11:21.679Z,1.95
2022-11-27T06:13:50.618Z,1.97
2022-11-27T06:16:22.441Z,2.04
2022-11-27T06:18:53.195Z,2.04
2022-11-27T06:21:21.895Z,2.02
2022-11-27T06:23:50.284Z,1.85
2022-11-27T06:26:19.656Z,1.65
2022-11-27T06:28:48.793Z,2.04
2022-11-27T06:31:18.726Z,2.03
2022-11-27T06:33:46.949Z,2.01
2022-11-27T06:36:16.876Z,1.85
2022-11-27T06:38:45.405Z,1.89
2022-11-27T06:41:15.404Z,1.69
2022-11-27T06:43:43.628Z,1.84
2022-11-27T06:46:15.468Z,2.00
2022-11-27T06:48:43.781Z,1.69
2022-11-27T06:51:14.180Z,1.92
2022-11-27T06:53:44.463Z,1.75
2022-11-27T06:56:14.205Z,1.98
2022-11-27T06:58:43.126Z,1.88
2022-11-27T07:01:13.479Z,1.75
2022-11-27T07:03:41.734Z,1.98
2022-11-27T07:06:13.011Z,1.93
2022-11-27T07:08:41.124Z,1.97
2022-11-27T07:11:13.549Z,1.96
2022-11-27T07:13:41.821Z,2.00
2022-11-27T07:16:12.913Z,1.98
2022-11-27T07:18:42.588Z,2.00
2022-11-27T07:21:11.355Z,1.99
2022-11-27T07:23:40.004Z,1.69
2022-11-27T07:26:08.996Z,1.91
2022-11-27T07:28:38.342Z,1.89
2022-11-27T07:31:06.560Z,1.90
2022-11-27T07:33:34.416Z,1.91
2022-11-27T07:36:04.156Z,1.90
2022-11-27T07:38:32.248Z,1.97
2022-11-27T07:41:01.580Z,1.92
2022-11-27T07:43:29.665Z,2.01
2022-11-27T07:45:59.391Z,2.03
2022-11-27T07:48:27.332Z,2.05
2022-11-27T07:50:55.251Z,2.05
2022-11-27T07:53:23.163Z,2.05
2022-11-27T07:55:53.286Z,2.04
2022-11-27T07:58:21.435Z,2.06
2022-11-27T08:00:49.396Z,2.01
2022-11-27T08:03:18.553Z,2.08
2022-11-27T08:05:46.579Z,2.08
2022-11-27T08:08:14.515Z,2.09
2022-11-27T08:10:42.640Z,2.10
2022-11-27T08:13:10.696Z,2.12
2022-11-27T08:15:38.913Z,2.12
2022-11-27T08:18:06.783Z,2.15
2022-11-27T08:20:36.097Z,2.15
2022-11-27T08:23:04.008Z,2.20
2022-11-27T08:25:31.909Z,2.23
2022-11-27T08:27:59.776Z,2.27
2022-11-27T08:30:27.741Z,2.26
2022-11-27T08:32:55.575Z,2.34
2022-11-27T08:35:23.724Z,2.14
2022-11-27T08:37:53.206Z,2.20
2022-11-27T08:40:21.228Z,2.42
2022-11-27T08:42:49.191Z,2.45
2022-11-27T08:45:17.324Z,2.41
2022-11-27T08:47:45.189Z,2.50
2022-11-27T08:50:13.111Z,2.50
2022-11-27T08:52:40.956Z,2.50
2022-11-27T08:55:10.886Z,2.02
2022-11-27T08:57:39.202Z,2.54
2022-11-27T09:00:08.969Z,2.56
2022-11-27T09:02:36.863Z,2.60
2022-11-27T09:05:07.208Z,2.64
2022-11-27T09:07:35.181Z,2.61
2022-11-27T09:10:03.035Z,2.71
2022-11-27T09:12:32.405Z,2.73
2022-11-27T09:15:00.260Z,2.76
2022-11-27T09:17:28.512Z,2.69
2022-11-27T09:19:56.433Z,2.82
2022-11-27T09:22:24.340Z,2.83
2022-11-27T09:24:52.134Z,2.87
2022-11-27T09:27:20.045Z,2.91
2022-11-27T09:29:49.748Z,2.89
2022-11-27T09:32:17.846Z,2.87
2022-11-27T09:34:45.876Z,2.94
2022-11-27T09:37:13.865Z,3.01
2022-11-27T09:39:41.747Z,3.03
2022-11-27T09:42:18.576Z,2.96
2022-11-27T09:44:54.139Z,3.05
2022-11-27T09:47:29.592Z,3.05
2022-11-27T09:50:01.733Z,3.05
2022-11-27T09:52:39.585Z,3.06
2022-11-27T09:55:15.118Z,3.08
2022-11-27T09:57:47.614Z,3.03
2022-11-27T10:00:19.555Z,3.05
2022-11-27T10:02:48.167Z,3.05
2022-11-27T10:05:22.244Z,3.03
2022-11-27T10:08:06.937Z,3.00
2022-11-27T10:10:41.961Z,2.88
2022-11-27T10:13:22.733Z,2.97
2022-11-27T10:15:58.112Z,2.96
2022-11-27T10:18:36.820Z,2.89
2022-11-27T10:21:11.182Z,2.98
2022-11-27T10:23:45.281Z,2.99
2022-11-27T10:26:18.880Z,3.00
2022-11-27T10:28:55.721Z,2.99
2022-11-27T10:31:34.309Z,2.95
2022-11-27T10:34:05.299Z,2.91
2022-11-27T10:36:38.023Z,2.97
2022-11-27T10:39:13.318Z,2.97
2022-11-27T10:41:49.686Z,2.99
2022-11-27T10:44:31.515Z,3.02
2022-11-27T10:47:05.332Z,3.03
2022-11-27T10:49:35.072Z,3.03
2022-11-27T10:52:02.867Z,3.05
2022-11-27T10:54:35.470Z,3.06
2022-11-27T10:57:28.292Z,3.08
2022-11-27T11:00:06.496Z,3.09
2022-11-27T11:02:38.483Z,3.08
2022-11-27T11:05:57.257Z,3.08
2022-11-27T11:08:18.890Z,3.05
2022-11-27T11:10:52.963Z,2.99
2022-11-27T11:13:22.991Z,3.05
2022-11-27T11:16:00.267Z,3.01
2022-11-27T11:18:32.795Z,3.02
2022-11-27T11:21:03.251Z,2.88
2022-11-27T11:23:35.137Z,3.00
2022-11-27T11:26:06.874Z,2.99
2022-11-27T11:28:42.365Z,2.99
2022-11-27T11:31:19.462Z,2.99
2022-11-27T11:33:55.618Z,2.99
2022-11-27T11:36:23.902Z,3.00
2022-11-27T11:38:53.293Z,2.99
2022-11-27T11:41:21.815Z,2.73
2022-11-27T11:43:58.640Z,2.98
2022-11-27T11:46:28.708Z,2.94
2022-11-27T11:49:01.686Z,2.81
2022-11-27T11:51:58.653Z,2.96
2022-11-27T11:54:46.439Z,2.91
2022-11-27T11:57:33.517Z,2.70
2022-11-27T12:00:07.328Z,2.90
2022-11-27T12:02:46.739Z,2.89
2022-11-27T12:05:28.251Z,2.89
2022-11-27T12:08:14.691Z,2.96
2022-11-27T12:10:54.781Z,2.98
2022-11-27T12:13:34.197Z,3.00
2022-11-27T12:16:10.389Z,3.00
2022-11-27T12:18:48.233Z,2.92
2022-11-27T12:21:22.788Z,2.65
2022-11-27T12:24:14.867Z,2.93
2022-11-27T12:26:57.924Z,2.99
2022-11-27T12:29:39.417Z,3.00
2022-11-27T12:32:32.364Z,3.00
2022-11-27T12:35:17.272Z,2.99
2022-11-27T12:37:53.938Z,2.99
2022-11-27T12:40:34.497Z,2.98
2022-11-27T12:43:14.729Z,2.98
2022-11-27T12:45:46.223Z,2.98
2022-11-27T12:48:19.330Z,2.98
2022-11-27T12:50:52.709Z,2.95
2022-11-27T12:53:29.954Z,2.86
2022-11-27T12:56:04.616Z,2.88
2022-11-27T12:58:37.535Z,2.92
2022-11-27T13:01:10.980Z,2.89
2022-11-27T13:03:49.181Z,2.87
2022-11-27T13:06:21.197Z,2.88
2022-11-27T13:08:58.224Z,2.34
2022-11-27T13:11:30.513Z,2.86
2022-11-27T13:14:04.475Z,2.86
2022-11-27T13:16:36.764Z,2.84
2022-11-27T13:19:13.752Z,2.83
2022-11-27T13:21:43.437Z,2.63
2022-11-27T13:24:14.527Z,2.76
2022-11-27T13:26:47.352Z,2.55
2022-11-27T13:29:22.005Z,2.69
2022-11-27T13:31:57.010Z,2.66
2022-11-27T13:34:28.944Z,2.64
2022-11-27T13:36:59.580Z,2.38
2022-11-27T13:39:32.352Z,2.38
2022-11-27T13:42:08.779Z,2.38
2022-11-27T13:44:41.370Z,2.49
2022-11-27T13:47:14.050Z,2.53
2022-11-27T13:49:43.536Z,2.49
2022-11-27T13:52:14.727Z,2.51
2022-11-27T13:54:56.013Z,2.43
2022-11-27T13:57:24.693Z,2.43
2022-11-27T14:00:01.544Z,2.25
2022-11-27T14:02:41.760Z,2.39
2022-11-27T14:05:10.496Z,2.37
2022-11-27T14:07:41.576Z,2.21
2022-11-27T14:10:16.017Z,2.30
2022-11-27T14:12:52.779Z,2.30
2022-11-27T14:15:24.960Z,2.26
2022-11-27T14:17:55.446Z,2.28
2022-11-27T14:20:29.811Z,2.28
2022-11-27T14:23:11.653Z,2.27
2022-11-27T14:25:42.634Z,2.23
2022-11-27T14:28:17.900Z,1.99
2022-11-27T14:30:49.701Z,2.22
2022-11-27T14:33:20.329Z,2.06
2022-11-27T14:35:52.333Z,2.19
2022-11-27T14:38:20.323Z,2.27
2022-11-27T14:40:51.679Z,2.28
2022-11-27T14:43:24.020Z,2.28
2022-11-27T14:45:54.616Z,2.24
2022-11-27T14:48:24.960Z,2.27
2022-11-27T14:50:54.520Z,2.32
2022-11-27T14:53:24.816Z,2.31
2022-11-27T14:55:57.623Z,2.32
2022-11-27T14:58:28.141Z,2.34
2022-11-27T15:00:59.588Z,2.32
2022-11-27T15:03:28.273Z,2.36
2022-11-27T15:05:59.695Z,1.82
2022-11-27T15:08:28.638Z,2.36
2022-11-27T15:10:59.540Z,2.37
2022-11-27T15:13:30.451Z,2.37
2022-11-27T15:16:05.092Z,2.37
2022-11-27T15:18:36.297Z,2.38
2022-11-27T15:21:11.446Z,2.39
2022-11-27T15:23:44.954Z,2.39
2022-11-27T15:26:20.006Z,2.40
2022-11-27T15:28:53.250Z,1.76
2022-11-27T15:31:27.681Z,2.13
2022-11-27T15:33:57.508Z,2.41
2022-11-27T15:36:25.858Z,2.41
2022-11-27T15:38:53.951Z,2.42
2022-11-27T15:41:25.753Z,2.43
2022-11-27T15:43:54.256Z,2.43
2022-11-27T15:46:26.204Z,2.20
2022-11-27T15:48:54.507Z,2.46
2022-11-27T15:51:22.327Z,2.41
2022-11-27T15:53:50.748Z,2.50
2022-11-27T15:56:19.532Z,2.55
2022-11-27T15:58:49.029Z,2.54
2022-11-27T16:01:17.240Z,2.57
2022-11-27T16:03:45.211Z,2.52
2022-11-27T16:06:13.015Z,2.57
2022-11-27T16:08:41.002Z,2.57
2022-11-27T16:11:13.567Z,2.55
2022-11-27T16:13:41.729Z,2.56
2022-11-27T16:16:11.462Z,2.56
2022-11-27T16:18:39.383Z,2.56
2022-11-27T16:21:08.947Z,2.56
2022-11-27T16:23:37.353Z,2.55
2022-11-27T16:26:05.857Z,2.55
2022-11-27T16:28:33.893Z,2.55
2022-11-27T16:31:03.827Z,2.57
2022-11-27T16:33:33.658Z,2.57
2022-11-27T16:36:06.662Z,2.58
2022-11-27T16:38:34.776Z,2.53
2022-11-27T16:41:03.927Z,2.53
2022-11-27T16:43:36.267Z,2.56
2022-11-27T16:46:06.814Z,2.57
2022-11-27T16:48:37.371Z,2.59
2022-11-27T16:51:06.107Z,2.59
2022-11-27T16:53:34.258Z,2.54
2022-11-27T16:56:02.513Z,2.42
2022-11-27T16:58:33.994Z,2.62
2022-11-27T17:01:01.901Z,2.61
2022-11-27T17:03:29.923Z,2.61
2022-11-27T17:05:59.214Z,2.62
2022-11-27T17:08:27.224Z,2.05
2022-11-27T17:10:55.370Z,2.61
2022-11-27T17:13:24.753Z,2.54
2022-11-27T17:15:52.785Z,2.59
2022-11-27T17:18:20.657Z,2.58
2022-11-27T17:20:48.483Z,2.59
2022-11-27T17:23:17.833Z,2.54
2022-11-27T17:25:45.705Z,2.58
2022-11-27T17:28:13.517Z,2.53
2022-11-27T17:30:41.532Z,2.59
2022-11-27T17:33:09.435Z,2.59
2022-11-27T17:35:37.288Z,2.49
2022-11-27T17:38:05.340Z,2.57
2022-11-27T17:40:34.669Z,2.57
2022-11-27T17:43:02.468Z,2.58
2022-11-27T17:45:30.935Z,2.58
2022-11-27T17:48:00.246Z,2.57
2022-11-27T17:50:28.156Z,2.60
2022-11-27T17:52:56.183Z,2.50
2022-11-27T17:55:24.069Z,2.60
2022-11-27T17:57:53.862Z,1.86
2022-11-27T18:00:22.064Z,2.52
2022-11-27T18:02:50.021Z,2.56
2022-11-27T18:05:19.347Z,2.28
2022-11-27T18:07:47.288Z,2.52
2022-11-27T18:10:15.156Z,2.52
2022-11-27T18:12:42.943Z,2.52
2022-11-27T18:15:14.624Z,2.52
2022-11-27T18:17:42.534Z,2.51
2022-11-27T18:20:11.877Z,2.51
2022-11-27T18:22:39.821Z,2.53
2022-11-27T18:25:08.093Z,2.53
2022-11-27T18:27:36.007Z,2.54
2022-11-27T18:30:04.697Z,2.54
2022-11-27T18:32:33.977Z,2.56
2022-11-27T18:35:01.775Z,2.56
2022-11-27T18:37:29.778Z,2.49
2022-11-27T18:39:57.823Z,2.55
2022-11-27T18:42:25.704Z,2.55
2022-11-27T18:44:53.858Z,2.49
2022-11-27T18:47:21.995Z,2.52
2022-11-27T18:49:51.982Z,2.46
2022-11-27T18:52:19.888Z,2.53
2022-11-27T18:54:48.085Z,2.53
2022-11-27T18:57:16.144Z,2.53
2022-11-27T18:59:44.852Z,2.53
2022-11-27T19:02:14.519Z,2.53
2022-11-27T19:04:44.340Z,2.53
2022-11-27T19:07:14.756Z,2.51
2022-11-27T19:09:42.997Z,2.51
2022-11-27T19:12:12.274Z,2.52
2022-11-27T19:14:40.854Z,2.52
2022-11-27T19:17:11.997Z,2.51
2022-11-27T19:19:55.705Z,2.52
2022-11-27T19:22:25.264Z,2.53
2022-11-27T19:24:53.115Z,2.50
2022-11-27T19:27:28.848Z,2.54
2022-11-27T19:29:59.784Z,2.50
2022-11-27T19:32:27.723Z,2.56
2022-11-27T19:34:55.632Z,2.57
2022-11-27T19:37:33.997Z,2.52
2022-11-27T19:40:05.769Z,2.59
2022-11-27T19:42:36.315Z,2.59
2022-11-27T19:45:07.909Z,2.58
2022-11-27T19:47:37.824Z,2.56
2022-11-27T19:50:09.843Z,2.52
2022-11-27T19:52:39.671Z,2.56
2022-11-27T19:55:08.055Z,2.58
2022-11-27T19:57:37.478Z,2.59
2022-11-27T20:00:06.826Z,2.57
2022-11-27T20:02:36.056Z,2.57
2022-11-27T20:05:04.588Z,2.57
2022-11-27T20:07:33.206Z,2.55
2022-11-27T20:10:02.691Z,2.56
2022-11-27T20:12:37.036Z,2.57
2022-11-27T20:15:09.116Z,2.09
2022-11-27T20:17:37.203Z,2.57
2022-11-27T20:20:05.817Z,2.57
2022-11-27T20:22:33.779Z,2.57
2022-11-27T20:25:18.932Z,2.57
2022-11-27T20:27:48.093Z,2.59
2022-11-27T20:30:16.285Z,2.59
2022-11-27T20:32:47.385Z,2.53
2022-11-27T20:35:18.213Z,2.59
2022-11-27T20:37:46.045Z,2.56
2022-11-27T20:40:15.488Z,2.61
2022-11-27T20:42:43.448Z,2.61
2022-11-27T20:45:16.198Z,2.62
2022-11-27T20:47:54.556Z,2.62
2022-11-27T20:50:22.463Z,2.63
2022-11-27T20:52:53.972Z,2.55
2022-11-27T20:55:23.307Z,2.65
2022-11-27T20:57:56.929Z,2.66
2022-11-27T21:00:25.433Z,2.34
2022-11-27T21:02:53.211Z,2.47
2022-11-27T21:05:21.242Z,2.72
2022-11-27T21:07:51.674Z,2.72
2022-11-27T21:10:25.635Z,2.73
2022-11-27T21:12:58.182Z,2.76
2022-11-27T21:15:31.121Z,2.77
2022-11-27T21:17:59.004Z,2.79
2022-11-27T21:20:26.861Z,2.80
2022-11-27T21:22:54.673Z,2.80
2022-11-27T21:25:25.448Z,2.82
2022-11-27T21:27:55.932Z,2.83
2022-11-27T21:30:25.422Z,2.85
2022-11-27T21:32:56.227Z,2.87
2022-11-27T21:35:31.571Z,2.79
2022-11-27T21:38:01.792Z,2.90
2022-11-27T21:40:37.048Z,1.76
2022-11-27T21:43:09.244Z,2.94
2022-11-27T21:45:52.649Z,2.95
2022-11-27T21:48:25.518Z,2.01
2022-11-27T21:51:03.898Z,2.91
2022-11-27T21:53:32.969Z,3.01
2022-11-27T21:56:04.875Z,3.04
2022-11-27T21:58:34.293Z,3.05
2022-11-27T22:01:04.655Z,3.08
2022-11-27T22:03:33.074Z,3.09
2022-11-27T22:06:02.691Z,2.71
2022-11-27T22:08:31.041Z,3.14
2022-11-27T22:10:59.129Z,3.00
2022-11-27T22:13:28.286Z,3.11
2022-11-27T22:15:56.113Z,3.17
2022-11-27T22:18:25.452Z,3.17
2022-11-27T22:20:53.513Z,3.19
2022-11-27T22:23:21.418Z,3.21
2022-11-27T22:25:49.564Z,3.20
2022-11-27T22:28:17.359Z,3.15
2022-11-27T22:30:45.239Z,3.19
2022-11-27T22:33:13.363Z,3.24
2022-11-27T22:35:42.528Z,3.25
2022-11-27T22:38:10.322Z,3.24
2022-11-27T22:40:38.381Z,3.28
2022-11-27T22:43:06.172Z,3.30
2022-11-27T22:45:34.296Z,3.30
2022-11-27T22:48:02.301Z,3.30
2022-11-27T22:50:30.105Z,3.27
2022-11-27T22:52:59.274Z,3.12
2022-11-27T22:55:27.856Z,3.30
2022-11-27T22:57:55.666Z,3.28
2022-11-27T23:00:24.077Z,3.27
2022-11-27T23:02:52.525Z,3.25
2022-11-27T23:05:20.373Z,3.22
2022-11-27T23:07:48.233Z,3.26
2022-11-27T23:10:18.991Z,3.26
2022-11-27T23:12:46.792Z,3.26
2022-11-27T23:15:14.645Z,3.26
2022-11-27T23:17:42.800Z,3.26
2022-11-27T23:20:11.404Z,3.04
2022-11-27T23:22:39.202Z,3.27
2022-11-27T23:25:08.099Z,3.29
2022-11-27T23:27:37.292Z,3.25
2022-11-27T23:30:05.900Z,3.30
2022-11-27T23:32:34.610Z,3.30
2022-11-27T23:35:02.457Z,3.30
2022-11-27T23:37:30.263Z,2.68
2022-11-27T23:39:58.375Z,3.20
2022-11-27T23:42:26.195Z,3.34
2022-11-27T23:44:55.365Z,3.28
2022-11-27T23:47:23.440Z,3.34
2022-11-27T23:49:51.261Z,3.36
2022-11-27T23:52:19.077Z,3.37
2022-11-27T23:54:47.244Z,3.38
2022-11-27T23:57:15.188Z,3.39
2022-11-27T23:59:42.979Z,3.29
